« Back
NWS Peachtree City, Ga » Text Product » AHN Terminal Aerodrome Forecast


Printer-friendly Version
Current Version              Previous Versions:   1  2  3  4  5  6  7  8  9  

Terminal Aerodrome Forecast

814
FTUS42 KFFC 031123
TAFAHN
TAF
KAHN 031123Z 0312/0412 24004KT P6SM SCT025 BKN060
     FM031300 27009KT P6SM VCSH BKN025
     FM031800 30010KT P6SM BKN050
     FM040200 30007KT P6SM SCT100=

USA.gov is the U.S. government's official web portal to all federal, state and local government web resources and services.